Rankings de siempre
Mejores tiempos personales válidos de equipo a través de todos los eventos y temporadas. Cada equipo aparece una vez por división.
Busca por nombre y abre la página donde está clasificado este récord de división.
133,012 equipos clasificados
| Pos. | Pos. AG | Equipo | Nacionalidad | Categoría de edad | TiempoMejor tiempo | Diferencia |
|---|---|---|---|---|---|---|
| 128051 | #15774 | Halley Whitney & Nicholas WhitneyUSA · X 35-39 · AG #15774 | USA | X 35-39 | 1:56:09 | +66:56 |
| 128052 | #44937 | Angela Shaw & JayOnn MylesUSA · X 30-34 · AG #44937 | USA | X 30-34 | 1:56:09 | +66:56 |
| 128053 | #19523 | Britta Ingwersen & Frederik SchöttlGER · X 25-29 · AG #19523 | GER | X 25-29 | 1:56:09 | +66:56 |
| 128054 | #15775 | Frederik Van Tonder & Michelle Van TonderRSA · X 35-39 · AG #15775 | RSA | X 35-39 | 1:56:09 | +66:56 |
| 128055 | #19524 | Ka Shing Yip & Joyce TsangX 25-29 · AG #19524 | -- | X 25-29 | 1:56:09 | +66:56 |
| 128056 | #15776 | Narista Kimnoom & Christopher BaileyX 35-39 · AG #15776 | -- | X 35-39 | 1:56:09 | +66:56 |
| 128057 | #44938 | Olwethu Nquma & Siviwe SoludongweRSA · X 30-34 · AG #44938 | RSA | X 30-34 | 1:56:09 | +66:56 |
| 128058 | #19525 | Connor Teo & Trixie PohSIN · X 25-29 · AG #19525 | SIN | X 25-29 | 1:56:09 | +66:56 |
| 128059 | #17229 | Angie Aboutalib & Brian HallingUSA · X 40-44 · AG #17229 | USA | X 40-44 | 1:56:10 | +66:57 |
| 128060 | -- | KANG HSUN SUNG & CHIH YIN KUOTPE · X XU29 | TPE | X XU29 | 1:56:10 | +66:57 |
| 128061 | #2935 | Simon Perry & Jayne PerryGBR · X 50-54 · AG #2935 | GBR | X 50-54 | 1:56:10 | +66:57 |
| 128062 | #15777 | Eleanor Hutchison & Niall QuinnX 35-39 · AG #15777 | -- | X 35-39 | 1:56:10 | +66:57 |
| 128063 | #15778 | Thanapit Teeraaksonsit & Nuttakorn JAIKAEWTHA · X 35-39 · AG #15778 | THA | X 35-39 | 1:56:10 | +66:57 |
| 128064 | #15779 | Florence Nopere & Brouart EmmanuelBEL · X 35-39 · AG #15779 | BEL | X 35-39 | 1:56:10 | +66:57 |
| 128065 | #44939 | Nathan Barker-Kornyk & Natalia Barker-KornykGBR · X 30-34 · AG #44939 | GBR | X 30-34 | 1:56:11 | +66:58 |
| 128066 | #4265 | Elaine Percy & David HoeyIRL · X 45-49 · AG #4265 | IRL | X 45-49 | 1:56:11 | +66:58 |
| 128067 | -- | Andrea Panella & Valeria BelvisoITA · X XU29 | ITA | X XU29 | 1:56:11 | +66:58 |
| 128068 | #17230 | Thanompong Pienpanich & Salinthip VijaksirikulTHA · X 40-44 · AG #17230 | THA | X 40-44 | 1:56:11 | +66:58 |
| 128069 | #19526 | Luis Antonio Alcocer Castillo & Abigail Sarmiento MoralesMEX · X 25-29 · AG #19526 | MEX | X 25-29 | 1:56:12 | +66:59 |
| 128070 | #44941 | Sarah Chin & Jia LiuX 30-34 · AG #44941 | -- | X 30-34 | 1:56:12 | +66:59 |
| 128071 | #17231 | Jules Morgan & Louise HaylettGBR · X 40-44 · AG #17231 | GBR | X 40-44 | 1:56:12 | +66:59 |
| 128072 | -- | Nathan Walker & Eilish SumnerGBR · X XU29 | GBR | X XU29 | 1:56:12 | +66:59 |
| 128073 | #15780 | Bradley Dunne & Beverley StubbsGBR · X 35-39 · AG #15780 | GBR | X 35-39 | 1:56:13 | +67:00 |
| 128074 | #19527 | Alexa Garcia & Angel CastroUSA · X 25-29 · AG #19527 | USA | X 25-29 | 1:56:13 | +67:00 |
| 128075 | #17233 | 国瑞 赵 & 随喜 赵CHN · X 40-44 · AG #17233 | CHN | X 40-44 | 1:56:13 | +67:00 |
Página 5,123 de 5,321